createdAt,value
2019-05-11T00:01:57.299Z,8.20
2019-05-11T00:04:25.745Z,8.20
2019-05-11T00:06:54.118Z,8.30
2019-05-11T00:09:22.463Z,8.20
2019-05-11T00:11:50.828Z,8.20
2019-05-11T00:14:19.180Z,8.30
2019-05-11T00:16:47.525Z,8.30
2019-05-11T00:19:15.961Z,8.30
2019-05-11T00:21:44.311Z,8.30
2019-05-11T00:24:12.676Z,8.20
2019-05-11T00:26:41.020Z,8.20
2019-05-11T00:29:09.384Z,8.10
2019-05-11T00:31:37.747Z,8.00
2019-05-11T00:34:06.095Z,8.00
2019-05-11T00:36:34.455Z,7.90
2019-05-11T00:39:02.815Z,7.90
2019-05-11T00:41:31.175Z,7.90
2019-05-11T00:43:59.519Z,8.00
2019-05-11T00:46:27.885Z,8.00
2019-05-11T00:48:56.232Z,8.00
2019-05-11T00:51:24.596Z,8.00
2019-05-11T00:53:53.034Z,8.00
2019-05-11T00:56:21.394Z,8.10
2019-05-11T00:58:51.013Z,8.10
2019-05-11T01:01:19.704Z,8.20
2019-05-11T01:03:48.062Z,8.30
2019-05-11T01:06:16.424Z,8.40
2019-05-11T01:08:44.771Z,8.50
2019-05-11T01:11:13.141Z,8.60
2019-05-11T01:13:41.493Z,8.60
2019-05-11T01:16:09.844Z,8.70
2019-05-11T01:18:38.216Z,8.70
2019-05-11T01:21:06.572Z,8.80
2019-05-11T01:23:34.932Z,8.90
2019-05-11T01:26:03.291Z,9.00
2019-05-11T01:28:31.642Z,9.00
2019-05-11T01:31:00.120Z,9.10
2019-05-11T01:33:28.494Z,9.10
2019-05-11T01:35:58.629Z,9.10
2019-05-11T01:38:27.023Z,9.10
2019-05-11T01:40:58.757Z,9.20
2019-05-11T01:43:25.401Z,9.30
2019-05-11T01:45:53.824Z,9.40
2019-05-11T01:48:22.195Z,9.40
2019-05-11T01:50:50.544Z,9.50
2019-05-11T01:53:18.897Z,9.50
2019-05-11T01:55:47.268Z,9.60
2019-05-11T01:58:15.620Z,9.60
2019-05-11T02:00:44.171Z,9.60
2019-05-11T02:03:12.645Z,9.60
2019-05-11T02:05:40.997Z,9.60
2019-05-11T02:08:09.375Z,9.60
2019-05-11T02:10:37.716Z,9.60
2019-05-11T02:13:06.092Z,9.60
2019-05-11T02:15:34.429Z,9.60
2019-05-11T02:18:02.794Z,9.70
2019-05-11T02:20:31.152Z,9.80
2019-05-11T02:22:59.502Z,9.80
2019-05-11T02:25:27.863Z,9.90
2019-05-11T02:27:56.212Z,9.90
2019-05-11T02:30:24.582Z,9.80
2019-05-11T02:32:52.950Z,9.80
2019-05-11T02:35:21.309Z,9.80
2019-05-11T02:37:49.662Z,9.70
2019-05-11T02:40:18.090Z,9.60
2019-05-11T02:42:46.439Z,9.50
2019-05-11T02:45:14.788Z,9.40
2019-05-11T02:47:43.153Z,9.30
2019-05-11T02:50:11.573Z,9.20
2019-05-11T02:52:40.314Z,9.00
2019-05-11T02:55:08.675Z,8.90
2019-05-11T02:57:37.012Z,8.90
2019-05-11T03:00:08.896Z,8.70
2019-05-11T03:02:37.244Z,8.60
2019-05-11T03:05:07.081Z,8.50
2019-05-11T03:07:35.425Z,8.40
2019-05-11T03:10:04.267Z,8.40
2019-05-11T03:12:32.629Z,8.30
2019-05-11T03:15:00.973Z,8.30
2019-05-11T03:17:30.981Z,8.30
2019-05-11T03:19:59.343Z,8.40
2019-05-11T03:22:27.706Z,8.40
2019-05-11T03:24:56.052Z,8.30
2019-05-11T03:27:24.420Z,8.30
2019-05-11T03:29:53.065Z,8.30
2019-05-11T03:32:21.397Z,8.20
2019-05-11T03:34:49.753Z,8.20
2019-05-11T03:37:18.123Z,8.20
2019-05-11T03:39:46.476Z,8.20
2019-05-11T03:42:15.470Z,8.20
2019-05-11T03:44:44.020Z,8.30
2019-05-11T03:47:12.356Z,8.40
2019-05-11T03:49:40.726Z,8.40
2019-05-11T03:52:09.071Z,8.50
2019-05-11T03:54:37.443Z,8.60
2019-05-11T03:57:05.793Z,8.60
2019-05-11T03:59:34.137Z,8.70
2019-05-11T04:02:02.509Z,8.90
2019-05-11T04:04:30.861Z,9.00
2019-05-11T04:06:59.208Z,9.10
2019-05-11T04:09:27.569Z,9.20
2019-05-11T04:11:55.947Z,9.30
2019-05-11T04:14:24.301Z,9.40
2019-05-11T04:16:52.644Z,9.50
2019-05-11T04:19:21.010Z,9.60
2019-05-11T04:21:49.373Z,9.70
2019-05-11T04:24:17.727Z,9.80
2019-05-11T04:26:46.092Z,9.90
2019-05-11T04:29:14.460Z,10.00
2019-05-11T04:31:42.823Z,10.10
2019-05-11T04:34:11.181Z,10.30
2019-05-11T04:36:39.540Z,10.40
2019-05-11T04:39:07.918Z,10.70
2019-05-11T04:41:36.281Z,10.80
2019-05-11T04:44:04.658Z,11.00
2019-05-11T04:46:32.989Z,11.20
2019-05-11T04:49:01.366Z,11.30
2019-05-11T04:51:29.737Z,11.40
2019-05-11T04:53:58.102Z,11.40
2019-05-11T04:56:26.453Z,11.50
2019-05-11T04:58:54.806Z,11.40
2019-05-11T05:01:23.173Z,11.50
2019-05-11T05:03:54.480Z,11.50
2019-05-11T05:06:23.993Z,11.60
2019-05-11T05:08:51.549Z,11.90
2019-05-11T05:11:19.897Z,12.40
2019-05-11T05:13:48.268Z,13.20
2019-05-11T05:16:16.615Z,14.00
2019-05-11T05:18:44.988Z,15.10
2019-05-11T05:21:13.336Z,16.30
2019-05-11T05:23:41.706Z,17.40
2019-05-11T05:26:10.070Z,18.00
2019-05-11T05:28:38.420Z,18.50
2019-05-11T05:31:06.792Z,19.00
2019-05-11T05:33:35.146Z,19.40
2019-05-11T05:36:03.520Z,19.60
2019-05-11T05:38:31.876Z,19.50
2019-05-11T05:41:00.239Z,19.20
2019-05-11T05:43:28.761Z,18.90
2019-05-11T05:45:57.276Z,18.70
2019-05-11T05:48:25.659Z,18.50
2019-05-11T05:50:54.012Z,18.30
2019-05-11T05:53:22.376Z,18.20
2019-05-11T05:55:50.744Z,18.00
2019-05-11T05:58:19.115Z,17.80
2019-05-11T06:00:47.466Z,17.60
2019-05-11T06:03:15.818Z,17.40
2019-05-11T06:05:44.195Z,17.20
2019-05-11T06:08:12.583Z,17.20
2019-05-11T06:10:40.912Z,17.10
2019-05-11T06:13:09.264Z,17.10
2019-05-11T06:15:37.637Z,17.10
2019-05-11T06:18:06.004Z,17.00
2019-05-11T06:20:34.374Z,17.00
2019-05-11T06:23:02.737Z,17.00
2019-05-11T06:25:31.157Z,17.10
2019-05-11T06:27:59.540Z,17.10
2019-05-11T06:30:27.880Z,17.10
2019-05-11T06:32:56.235Z,17.10
2019-05-11T06:35:24.618Z,17.00
2019-05-11T06:37:52.962Z,16.90
2019-05-11T06:40:21.326Z,16.90
2019-05-11T06:42:49.694Z,16.80
2019-05-11T06:45:18.058Z,16.80
2019-05-11T06:47:46.409Z,16.80
2019-05-11T06:50:14.874Z,16.70
2019-05-11T06:52:43.239Z,16.70
2019-05-11T06:55:11.587Z,16.70
2019-05-11T06:57:39.961Z,16.70
2019-05-11T07:00:09.221Z,16.70
2019-05-11T07:02:37.660Z,16.70
2019-05-11T07:05:07.056Z,16.70
2019-05-11T07:07:47.214Z,16.70
2019-05-11T07:10:06.872Z,16.80
2019-05-11T07:12:35.225Z,16.90
2019-05-11T07:15:09.569Z,17.00
2019-05-11T07:17:38.076Z,17.10
2019-05-11T07:20:09.698Z,17.20
2019-05-11T07:22:38.053Z,17.30
2019-05-11T07:25:07.090Z,17.40
2019-05-11T07:27:35.442Z,17.50
2019-05-11T07:30:06.332Z,17.50
2019-05-11T07:32:35.067Z,17.60
2019-05-11T07:35:03.889Z,17.70
2019-05-11T07:37:32.235Z,17.80
2019-05-11T07:40:00.621Z,17.90
2019-05-11T07:42:28.996Z,18.00
2019-05-11T07:44:58.278Z,18.10
2019-05-11T07:47:27.764Z,18.30
2019-05-11T07:49:57.893Z,18.40
2019-05-11T07:52:28.593Z,18.50
2019-05-11T07:54:58.513Z,18.60
2019-05-11T07:57:28.378Z,18.70
2019-05-11T07:59:57.866Z,18.80
2019-05-11T08:02:28.539Z,18.80
2019-05-11T08:04:58.531Z,18.90
2019-05-11T08:07:28.540Z,19.00
2019-05-11T08:09:58.560Z,19.10
2019-05-11T08:12:28.517Z,19.20
2019-05-11T08:15:05.968Z,19.40
2019-05-11T08:17:28.590Z,19.70
2019-05-11T08:19:58.089Z,19.80
2019-05-11T08:22:28.418Z,20.00
2019-05-11T08:24:58.573Z,20.00
2019-05-11T08:27:28.544Z,19.90
2019-05-11T08:29:58.016Z,19.70
2019-05-11T08:32:28.680Z,19.70
2019-05-11T08:34:58.051Z,19.60
2019-05-11T08:37:28.386Z,19.70
2019-05-11T08:39:58.493Z,19.70
2019-05-11T08:42:28.811Z,19.90
2019-05-11T08:45:11.727Z,20.00
2019-05-11T08:47:28.366Z,20.10
2019-05-11T08:49:58.858Z,20.30
2019-05-11T08:52:28.055Z,20.50
2019-05-11T08:54:57.784Z,20.60
2019-05-11T08:57:28.360Z,20.60
2019-05-11T08:59:57.892Z,20.60
2019-05-11T09:02:27.817Z,20.60
2019-05-11T09:04:58.700Z,20.50
2019-05-11T09:07:27.847Z,20.40
2019-05-11T09:09:58.372Z,20.30
2019-05-11T09:12:28.619Z,20.30
2019-05-11T09:14:58.101Z,20.10
2019-05-11T09:17:28.708Z,20.10
2019-05-11T09:19:58.160Z,20.00
2019-05-11T09:22:28.332Z,19.90
2019-05-11T09:24:58.271Z,19.90
2019-05-11T09:27:28.637Z,19.80
2019-05-11T09:29:58.749Z,19.80
2019-05-11T09:32:28.531Z,19.90
2019-05-11T09:34:57.980Z,20.00
2019-05-11T09:37:27.774Z,20.10
2019-05-11T09:39:58.410Z,20.20
2019-05-11T09:42:28.406Z,20.30
2019-05-11T09:44:57.738Z,20.40
2019-05-11T09:47:27.949Z,20.40
2019-05-11T09:49:58.267Z,20.50
2019-05-11T09:52:27.915Z,20.50
2019-05-11T09:54:58.014Z,20.50
2019-05-11T09:57:27.626Z,20.70
2019-05-11T09:59:58.228Z,20.80
2019-05-11T10:02:27.945Z,21.00
2019-05-11T10:04:57.792Z,21.20
2019-05-11T10:07:28.440Z,21.50
2019-05-11T10:09:58.348Z,21.60
2019-05-11T10:12:28.471Z,21.80
2019-05-11T10:14:56.420Z,21.80
2019-05-11T10:17:24.788Z,21.90
2019-05-11T10:19:53.132Z,21.90
2019-05-11T10:22:21.505Z,21.80
2019-05-11T10:24:49.859Z,21.80
2019-05-11T10:27:18.868Z,21.70
2019-05-11T10:29:48.382Z,21.80
2019-05-11T10:32:18.335Z,21.80
2019-05-11T10:34:47.768Z,21.90
2019-05-11T10:37:17.653Z,22.20
2019-05-11T10:39:48.671Z,22.50
2019-05-11T10:42:17.970Z,22.70
2019-05-11T10:44:47.884Z,23.00
2019-05-11T10:47:18.454Z,23.20
2019-05-11T10:49:48.477Z,23.20
2019-05-11T10:52:18.013Z,23.10
2019-05-11T10:54:47.800Z,23.10
2019-05-11T10:57:18.725Z,23.10
2019-05-11T10:59:48.693Z,23.30
2019-05-11T11:02:18.361Z,23.60
2019-05-11T11:04:48.445Z,23.90
2019-05-11T11:07:19.277Z,24.20
2019-05-11T11:09:48.906Z,24.50
2019-05-11T11:12:18.709Z,24.60
2019-05-11T11:14:48.209Z,24.60
2019-05-11T11:17:18.939Z,24.60
2019-05-11T11:19:48.662Z,24.60
2019-05-11T11:22:35.080Z,24.70
2019-05-11T11:24:48.169Z,24.80
2019-05-11T11:27:18.487Z,24.90
2019-05-11T11:29:47.586Z,25.30
2019-05-11T11:32:18.260Z,25.50
2019-05-11T11:34:48.349Z,25.50
2019-05-11T11:37:17.578Z,25.40
2019-05-11T11:39:47.637Z,25.40
2019-05-11T11:42:17.861Z,25.40
2019-05-11T11:44:48.241Z,25.40
2019-05-11T11:47:21.275Z,25.40
2019-05-11T11:49:47.560Z,25.50
2019-05-11T11:52:16.072Z,25.30
2019-05-11T11:54:44.437Z,25.20
2019-05-11T11:57:12.790Z,25.20
2019-05-11T11:59:41.162Z,25.00
2019-05-11T12:02:09.530Z,24.90
2019-05-11T12:04:38.874Z,24.90
2019-05-11T12:07:08.504Z,25.00
2019-05-11T12:09:37.804Z,25.30
2019-05-11T12:12:07.855Z,25.60
2019-05-11T12:14:38.503Z,26.00
2019-05-11T12:17:10.475Z,26.20
2019-05-11T12:19:38.257Z,26.20
2019-05-11T12:22:08.626Z,26.10
2019-05-11T12:24:37.558Z,25.80
2019-05-11T12:27:07.716Z,25.60
2019-05-11T12:29:38.400Z,25.20
2019-05-11T12:32:08.260Z,24.90
2019-05-11T12:34:37.534Z,24.70
2019-05-11T12:37:08.387Z,24.50
2019-05-11T12:39:38.509Z,24.40
2019-05-11T12:42:08.411Z,24.30
2019-05-11T12:44:36.123Z,24.20
2019-05-11T12:47:18.466Z,24.30
2019-05-11T12:49:34.492Z,24.20
2019-05-11T12:52:02.857Z,24.20
2019-05-11T12:54:33.898Z,24.20
2019-05-11T12:57:01.230Z,24.20
2019-05-11T12:59:29.593Z,24.00
2019-05-11T13:01:59.045Z,23.70
2019-05-11T13:04:28.257Z,23.60
2019-05-11T13:06:58.193Z,23.80
2019-05-11T13:09:28.615Z,24.10
2019-05-11T13:11:58.638Z,24.50
2019-05-11T13:14:27.736Z,24.60
2019-05-11T13:16:58.754Z,24.80
2019-05-11T13:19:28.191Z,24.80
2019-05-11T13:21:58.763Z,24.80
2019-05-11T13:24:28.233Z,25.00
2019-05-11T13:26:57.035Z,25.10
2019-05-11T13:29:28.273Z,24.80
2019-05-11T13:31:56.233Z,24.60
2019-05-11T13:34:24.588Z,24.30
2019-05-11T13:36:52.941Z,24.10
2019-05-11T13:39:21.308Z,24.00
2019-05-11T13:41:49.675Z,23.90
2019-05-11T13:44:18.584Z,23.80
2019-05-11T13:46:48.169Z,23.70
2019-05-11T13:49:17.886Z,23.50
2019-05-11T13:51:48.093Z,23.30
2019-05-11T13:54:18.429Z,23.20
2019-05-11T13:56:48.383Z,23.00
2019-05-11T13:59:18.612Z,22.80
2019-05-11T14:01:47.776Z,22.50
2019-05-11T14:04:18.172Z,22.20
2019-05-11T14:06:48.178Z,22.00
2019-05-11T14:09:18.503Z,21.80
2019-05-11T14:11:47.883Z,21.70
2019-05-11T14:14:18.369Z,21.60
2019-05-11T14:16:48.493Z,21.60
2019-05-11T14:19:17.956Z,21.80
2019-05-11T14:21:48.778Z,22.10
2019-05-11T14:24:18.374Z,22.40
2019-05-11T14:26:48.638Z,22.80
2019-05-11T14:29:17.769Z,23.20
2019-05-11T14:31:48.173Z,23.50
2019-05-11T14:34:18.171Z,23.90
2019-05-11T14:36:47.973Z,24.20
2019-05-11T14:39:18.782Z,24.30
2019-05-11T14:41:48.582Z,24.30
2019-05-11T14:44:18.108Z,24.20
2019-05-11T14:46:47.788Z,24.10
2019-05-11T14:49:18.216Z,24.00
2019-05-11T14:51:48.572Z,23.90
2019-05-11T14:54:18.562Z,23.70
2019-05-11T14:56:48.104Z,23.60
2019-05-11T14:59:18.388Z,23.50
2019-05-11T15:01:48.800Z,23.40
2019-05-11T15:04:18.145Z,23.40
2019-05-11T15:06:48.819Z,23.30
2019-05-11T15:09:18.345Z,23.20
2019-05-11T15:11:48.084Z,23.20
2019-05-11T15:14:19.728Z,23.20
2019-05-11T15:16:48.544Z,23.10
2019-05-11T15:19:18.426Z,23.00
2019-05-11T15:21:47.571Z,22.80
2019-05-11T15:24:18.315Z,22.60
2019-05-11T15:26:48.446Z,22.20
2019-05-11T15:29:18.085Z,22.00
2019-05-11T15:31:48.386Z,21.80
2019-05-11T15:34:18.314Z,21.70
2019-05-11T15:36:48.812Z,21.70
2019-05-11T15:39:18.215Z,21.70
2019-05-11T15:41:48.036Z,21.80
2019-05-11T15:44:18.282Z,21.90
2019-05-11T15:46:47.991Z,22.10
2019-05-11T15:49:17.978Z,22.30
2019-05-11T15:51:48.855Z,22.40
2019-05-11T15:54:18.524Z,22.50
2019-05-11T15:56:46.633Z,22.50
2019-05-11T15:59:14.978Z,22.60
2019-05-11T16:01:43.345Z,22.60
2019-05-11T16:04:11.720Z,22.50
2019-05-11T16:06:40.072Z,22.40
2019-05-11T16:09:08.635Z,22.20
2019-05-11T16:11:38.890Z,22.00
2019-05-11T16:14:08.645Z,21.70
2019-05-11T16:16:38.977Z,21.50
2019-05-11T16:19:14.429Z,21.20
2019-05-11T16:21:38.244Z,20.90
2019-05-11T16:24:08.033Z,20.60
2019-05-11T16:26:36.643Z,20.40
2019-05-11T16:29:05.002Z,20.10
2019-05-11T16:31:33.360Z,19.90
2019-05-11T16:34:02.781Z,19.60
2019-05-11T16:36:31.368Z,19.30
2019-05-11T16:38:59.732Z,19.10
2019-05-11T16:41:29.186Z,18.90
2019-05-11T16:43:58.530Z,18.70
2019-05-11T16:46:28.387Z,18.50
2019-05-11T16:48:57.816Z,18.30
2019-05-11T16:51:28.253Z,18.20
2019-05-11T16:53:58.599Z,18.00
2019-05-11T16:56:26.346Z,17.90
2019-05-11T16:58:55.014Z,17.90
2019-05-11T17:01:23.548Z,17.90
2019-05-11T17:03:51.913Z,17.80
2019-05-11T17:06:20.274Z,17.80
2019-05-11T17:08:48.812Z,17.90
2019-05-11T17:11:18.638Z,17.80
2019-05-11T17:13:48.332Z,17.80
2019-05-11T17:16:17.920Z,17.80
2019-05-11T17:18:48.378Z,17.70
2019-05-11T17:21:18.272Z,17.70
2019-05-11T17:23:48.825Z,17.60
2019-05-11T17:26:18.799Z,17.50
2019-05-11T17:28:48.801Z,17.50
2019-05-11T17:31:18.845Z,17.40
2019-05-11T17:33:47.633Z,17.30
2019-05-11T17:36:18.498Z,17.20
2019-05-11T17:38:47.849Z,17.20
2019-05-11T17:41:16.418Z,17.00
2019-05-11T17:43:45.053Z,17.00
2019-05-11T17:46:13.429Z,16.90
2019-05-11T17:48:41.753Z,16.80
2019-05-11T17:51:20.457Z,16.70
2019-05-11T17:53:40.132Z,16.60
2019-05-11T17:56:08.837Z,16.50
2019-05-11T17:58:37.876Z,16.50
2019-05-11T18:01:09.215Z,16.40
2019-05-11T18:03:38.472Z,16.30
2019-05-11T18:06:08.462Z,16.20
2019-05-11T18:08:37.073Z,16.20
2019-05-11T18:11:08.112Z,16.10
2019-05-11T18:13:35.442Z,16.00
2019-05-11T18:16:03.866Z,16.00
2019-05-11T18:18:32.237Z,16.00
2019-05-11T18:21:00.601Z,15.90
2019-05-11T18:23:28.963Z,15.80
2019-05-11T18:25:57.311Z,15.80
2019-05-11T18:28:25.752Z,15.70
2019-05-11T18:30:54.121Z,15.70
2019-05-11T18:33:22.475Z,15.70
2019-05-11T18:35:50.851Z,15.70
2019-05-11T18:38:19.212Z,15.70
2019-05-11T18:40:48.598Z,15.70
2019-05-11T18:43:18.862Z,15.70
2019-05-11T18:45:48.841Z,15.60
2019-05-11T18:48:18.568Z,15.50
2019-05-11T18:50:49.118Z,15.40
2019-05-11T18:53:18.670Z,15.20
2019-05-11T18:55:48.656Z,14.90
2019-05-11T18:58:18.448Z,14.70
2019-05-11T19:00:48.833Z,14.50
2019-05-11T19:03:19.287Z,14.30
2019-05-11T19:05:48.079Z,14.10
2019-05-11T19:08:18.809Z,14.00
2019-05-11T19:10:48.785Z,13.80
2019-05-11T19:13:16.787Z,13.70
2019-05-11T19:15:45.163Z,13.60
2019-05-11T19:18:13.522Z,13.60
2019-05-11T19:20:45.892Z,13.50
2019-05-11T19:23:11.885Z,13.40
2019-05-11T19:25:40.257Z,13.40
2019-05-11T19:28:08.714Z,13.30
2019-05-11T19:30:38.296Z,13.30
2019-05-11T19:33:10.711Z,13.20
2019-05-11T19:35:37.842Z,13.20
2019-05-11T19:38:08.670Z,13.10
2019-05-11T19:40:38.442Z,13.00
2019-05-11T19:43:08.249Z,12.90
2019-05-11T19:45:38.396Z,12.90
2019-05-11T19:48:08.424Z,12.80
2019-05-11T19:50:40.325Z,12.80
2019-05-11T19:53:08.461Z,12.70
2019-05-11T19:55:36.976Z,12.70
2019-05-11T19:58:05.341Z,12.60
2019-05-11T20:00:33.693Z,12.50
2019-05-11T20:03:02.068Z,12.50
2019-05-11T20:05:30.693Z,12.50
2019-05-11T20:07:59.100Z,12.50
2019-05-11T20:10:27.855Z,12.40
2019-05-11T20:12:58.552Z,12.40
2019-05-11T20:15:26.296Z,12.40
2019-05-11T20:17:54.657Z,12.30
2019-05-11T20:20:23.028Z,12.30
2019-05-11T20:22:51.385Z,12.30
2019-05-11T20:25:19.780Z,12.20
2019-05-11T20:27:48.719Z,12.20
2019-05-11T20:30:18.417Z,12.10
2019-05-11T20:32:48.415Z,12.10
2019-05-11T20:35:17.588Z,12.00
2019-05-11T20:37:45.937Z,12.00
2019-05-11T20:40:14.319Z,11.90
2019-05-11T20:42:42.665Z,11.90
2019-05-11T20:45:11.019Z,11.80
2019-05-11T20:47:39.380Z,11.70
2019-05-11T20:50:08.019Z,11.60
2019-05-11T20:52:38.784Z,11.60
2019-05-11T20:55:08.587Z,11.50
2019-05-11T20:57:38.668Z,11.50
2019-05-11T21:00:08.310Z,11.50
2019-05-11T21:02:38.067Z,11.50
2019-05-11T21:05:09.056Z,11.40
2019-05-11T21:07:38.953Z,11.30
2019-05-11T21:10:09.029Z,11.30
2019-05-11T21:12:38.596Z,11.20
2019-05-11T21:15:08.331Z,11.10
2019-05-11T21:17:36.695Z,11.10
2019-05-11T21:20:10.857Z,11.00
2019-05-11T21:22:40.703Z,11.00
2019-05-11T21:25:09.391Z,11.00
2019-05-11T21:27:38.392Z,10.90
2019-05-11T21:30:09.178Z,10.90
2019-05-11T21:32:38.785Z,10.80
2019-05-11T21:35:08.909Z,10.80
2019-05-11T21:37:38.805Z,10.70
2019-05-11T21:40:08.551Z,10.70
2019-05-11T21:42:38.930Z,10.70
2019-05-11T21:45:09.068Z,10.70
2019-05-11T21:47:38.620Z,10.70
2019-05-11T21:50:08.838Z,10.70
2019-05-11T21:52:38.362Z,10.70
2019-05-11T21:55:09.439Z,10.70
2019-05-11T21:57:38.048Z,10.70
2019-05-11T22:00:09.928Z,10.70
2019-05-11T22:02:38.782Z,10.60
2019-05-11T22:05:08.122Z,10.60
2019-05-11T22:07:41.340Z,10.60
2019-05-11T22:10:08.849Z,10.60
2019-05-11T22:12:38.796Z,10.60
2019-05-11T22:15:09.530Z,10.60
2019-05-11T22:17:39.307Z,10.60
2019-05-11T22:20:09.160Z,10.60
2019-05-11T22:22:38.985Z,10.60
2019-05-11T22:25:08.648Z,10.60
2019-05-11T22:27:38.733Z,10.60
2019-05-11T22:30:08.753Z,10.50
2019-05-11T22:32:38.407Z,10.60
2019-05-11T22:35:10.260Z,10.50
2019-05-11T22:37:39.178Z,10.60
2019-05-11T22:40:08.407Z,10.60
2019-05-11T22:42:36.973Z,10.60
2019-05-11T22:45:08.558Z,10.60
2019-05-11T22:47:39.177Z,10.50
2019-05-11T22:50:07.975Z,10.50
2019-05-11T22:52:37.397Z,10.50
2019-05-11T22:55:11.116Z,10.50
2019-05-11T22:57:38.084Z,10.50
2019-05-11T23:00:08.832Z,10.50
2019-05-11T23:02:38.019Z,10.50
2019-05-11T23:05:08.967Z,10.50
2019-05-11T23:07:41.310Z,10.50
2019-05-11T23:10:09.546Z,10.50
2019-05-11T23:12:44.072Z,10.50
2019-05-11T23:15:15.383Z,10.50
2019-05-11T23:17:43.731Z,10.50
2019-05-11T23:20:12.184Z,10.50
2019-05-11T23:22:57.993Z,10.50
2019-05-11T23:25:19.416Z,10.50
2019-05-11T23:27:48.439Z,10.50
2019-05-11T23:30:19.704Z,10.50
2019-05-11T23:32:48.559Z,10.50
2019-05-11T23:35:18.819Z,10.50
2019-05-11T23:37:49.450Z,10.50
2019-05-11T23:40:18.226Z,10.60
2019-05-11T23:42:49.072Z,10.50
2019-05-11T23:45:18.925Z,10.50
2019-05-11T23:47:48.682Z,10.50
2019-05-11T23:50:18.878Z,10.50
2019-05-11T23:52:48.797Z,10.50
2019-05-11T23:55:19.111Z,10.50
2019-05-11T23:57:48.551Z,10.50
